sensor_id;sensor_type;location;lat;lon;timestamp;temperature;humidity
15625;DHT22;7912;51.376;6.126;2022-10-17T00:01:19;18.80;99.90
15625;DHT22;7912;51.376;6.126;2022-10-17T00:03:47;18.80;99.90
15625;DHT22;7912;51.376;6.126;2022-10-17T00:06:15;18.80;99.90
15625;DHT22;7912;51.376;6.126;2022-10-17T00:08:43;18.80;99.90
15625;DHT22;7912;51.376;6.126;2022-10-17T00:11:18;18.80;99.90
15625;DHT22;7912;51.376;6.126;2022-10-17T00:13:49;18.80;99.90
15625;DHT22;7912;51.376;6.126;2022-10-17T00:16:25;18.80;99.90
15625;DHT22;7912;51.376;6.126;2022-10-17T00:18:55;18.80;99.90
15625;DHT22;7912;51.376;6.126;2022-10-17T00:21:23;18.80;99.90
15625;DHT22;7912;51.376;6.126;2022-10-17T00:23:52;18.80;99.90
15625;DHT22;7912;51.376;6.126;2022-10-17T00:26:20;18.80;99.90
15625;DHT22;7912;51.376;6.126;2022-10-17T00:28:49;18.80;99.90
15625;DHT22;7912;51.376;6.126;2022-10-17T00:31:20;18.70;99.90
15625;DHT22;7912;51.376;6.126;2022-10-17T00:33:49;18.80;99.90
15625;DHT22;7912;51.376;6.126;2022-10-17T00:36:23;18.80;99.90
15625;DHT22;7912;51.376;6.126;2022-10-17T00:38:54;18.70;99.90
15625;DHT22;7912;51.376;6.126;2022-10-17T00:41:26;18.70;99.90
15625;DHT22;7912;51.376;6.126;2022-10-17T00:46:34;18.70;99.90
15625;DHT22;7912;51.376;6.126;2022-10-17T00:49:09;18.70;99.90
15625;DHT22;7912;51.376;6.126;2022-10-17T00:51:44;18.70;99.90
15625;DHT22;7912;51.376;6.126;2022-10-17T00:54:22;18.70;99.90
15625;DHT22;7912;51.376;6.126;2022-10-17T00:56:52;18.70;99.90
15625;DHT22;7912;51.376;6.126;2022-10-17T00:59:21;18.70;99.90
15625;DHT22;7912;51.376;6.126;2022-10-17T01:02:03;18.70;99.90
15625;DHT22;7912;51.376;6.126;2022-10-17T01:04:38;18.70;99.90
15625;DHT22;7912;51.376;6.126;2022-10-17T01:07:08;18.70;99.90
15625;DHT22;7912;51.376;6.126;2022-10-17T01:09:37;18.70;99.90
15625;DHT22;7912;51.376;6.126;2022-10-17T01:12:24;18.60;99.90
15625;DHT22;7912;51.376;6.126;2022-10-17T01:15:16;18.60;99.90
15625;DHT22;7912;51.376;6.126;2022-10-17T01:31:45;18.60;99.90
15625;DHT22;7912;51.376;6.126;2022-10-17T01:34:24;18.60;99.90
15625;DHT22;7912;51.376;6.126;2022-10-17T01:39:49;18.60;99.90
15625;DHT22;7912;51.376;6.126;2022-10-17T01:42:36;18.60;99.90
15625;DHT22;7912;51.376;6.126;2022-10-17T01:45:15;18.60;99.90
15625;DHT22;7912;51.376;6.126;2022-10-17T01:47:50;18.60;99.90
15625;DHT22;7912;51.376;6.126;2022-10-17T01:50:24;18.60;99.90
15625;DHT22;7912;51.376;6.126;2022-10-17T01:53:02;18.60;99.90
15625;DHT22;7912;51.376;6.126;2022-10-17T01:55:36;18.60;99.90
15625;DHT22;7912;51.376;6.126;2022-10-17T01:58:11;18.60;99.90
15625;DHT22;7912;51.376;6.126;2022-10-17T02:00:43;18.60;99.90
15625;DHT22;7912;51.376;6.126;2022-10-17T02:03:16;18.60;99.90
15625;DHT22;7912;51.376;6.126;2022-10-17T02:05:47;18.60;99.90
15625;DHT22;7912;51.376;6.126;2022-10-17T02:08:28;18.60;99.90
15625;DHT22;7912;51.376;6.126;2022-10-17T02:11:17;18.60;99.90
15625;DHT22;7912;51.376;6.126;2022-10-17T02:14:05;18.60;99.90
15625;DHT22;7912;51.376;6.126;2022-10-17T02:22:37;18.70;99.90
15625;DHT22;7912;51.376;6.126;2022-10-17T02:25:32;18.70;99.90
15625;DHT22;7912;51.376;6.126;2022-10-17T02:31:14;18.70;99.90
15625;DHT22;7912;51.376;6.126;2022-10-17T02:34:03;18.70;99.90
15625;DHT22;7912;51.376;6.126;2022-10-17T02:36:42;18.70;99.90
15625;DHT22;7912;51.376;6.126;2022-10-17T02:39:15;18.70;99.90
15625;DHT22;7912;51.376;6.126;2022-10-17T02:41:44;18.70;99.90
15625;DHT22;7912;51.376;6.126;2022-10-17T02:44:13;18.70;99.90
15625;DHT22;7912;51.376;6.126;2022-10-17T02:46:44;18.70;99.90
15625;DHT22;7912;51.376;6.126;2022-10-17T02:49:30;18.70;99.90
15625;DHT22;7912;51.376;6.126;2022-10-17T02:52:28;18.70;99.90
15625;DHT22;7912;51.376;6.126;2022-10-17T02:55:11;18.70;99.90
15625;DHT22;7912;51.376;6.126;2022-10-17T02:57:50;18.70;99.90
15625;DHT22;7912;51.376;6.126;2022-10-17T03:00:25;18.70;99.90
15625;DHT22;7912;51.376;6.126;2022-10-17T03:02:54;18.70;99.90
15625;DHT22;7912;51.376;6.126;2022-10-17T03:05:27;18.70;99.90
15625;DHT22;7912;51.376;6.126;2022-10-17T03:07:55;18.80;99.90
15625;DHT22;7912;51.376;6.126;2022-10-17T03:10:23;18.80;99.90
15625;DHT22;7912;51.376;6.126;2022-10-17T03:12:50;18.80;99.90
15625;DHT22;7912;51.376;6.126;2022-10-17T03:15:18;18.80;99.90
15625;DHT22;7912;51.376;6.126;2022-10-17T03:17:45;18.80;99.90
15625;DHT22;7912;51.376;6.126;2022-10-17T03:20:12;18.80;99.90
15625;DHT22;7912;51.376;6.126;2022-10-17T03:22:40;18.80;99.90
15625;DHT22;7912;51.376;6.126;2022-10-17T03:25:07;18.80;99.90
15625;DHT22;7912;51.376;6.126;2022-10-17T03:27:34;18.80;99.90
15625;DHT22;7912;51.376;6.126;2022-10-17T03:30:02;18.80;99.90
15625;DHT22;7912;51.376;6.126;2022-10-17T03:32:32;18.70;99.90
15625;DHT22;7912;51.376;6.126;2022-10-17T03:35:00;18.70;99.90
15625;DHT22;7912;51.376;6.126;2022-10-17T03:37:28;18.80;99.90
15625;DHT22;7912;51.376;6.126;2022-10-17T03:39:55;18.80;99.90
15625;DHT22;7912;51.376;6.126;2022-10-17T03:42:23;18.80;99.90
15625;DHT22;7912;51.376;6.126;2022-10-17T03:44:50;18.80;99.90
15625;DHT22;7912;51.376;6.126;2022-10-17T03:47:17;18.80;99.90
15625;DHT22;7912;51.376;6.126;2022-10-17T03:49:44;18.70;99.90
15625;DHT22;7912;51.376;6.126;2022-10-17T03:52:12;18.80;99.90
15625;DHT22;7912;51.376;6.126;2022-10-17T03:54:40;18.70;99.90
15625;DHT22;7912;51.376;6.126;2022-10-17T03:57:08;18.80;99.90
15625;DHT22;7912;51.376;6.126;2022-10-17T03:59:35;18.70;99.90
15625;DHT22;7912;51.376;6.126;2022-10-17T04:02:03;18.80;99.90
15625;DHT22;7912;51.376;6.126;2022-10-17T04:04:30;18.80;99.90
15625;DHT22;7912;51.376;6.126;2022-10-17T04:06:58;18.70;99.90
15625;DHT22;7912;51.376;6.126;2022-10-17T04:09:25;18.80;99.90
15625;DHT22;7912;51.376;6.126;2022-10-17T04:11:53;18.80;99.90
15625;DHT22;7912;51.376;6.126;2022-10-17T04:14:20;18.80;99.90
15625;DHT22;7912;51.376;6.126;2022-10-17T04:16:48;18.80;99.90
15625;DHT22;7912;51.376;6.126;2022-10-17T04:19:34;18.80;99.90
15625;DHT22;7912;51.376;6.126;2022-10-17T04:25:08;18.80;99.90
15625;DHT22;7912;51.376;6.126;2022-10-17T04:27:35;18.80;99.90
15625;DHT22;7912;51.376;6.126;2022-10-17T04:30:03;18.80;99.90
15625;DHT22;7912;51.376;6.126;2022-10-17T04:32:31;18.80;99.90
15625;DHT22;7912;51.376;6.126;2022-10-17T04:35:02;18.80;99.90
15625;DHT22;7912;51.376;6.126;2022-10-17T04:37:30;18.80;99.90
15625;DHT22;7912;51.376;6.126;2022-10-17T04:40:19;18.80;99.90
15625;DHT22;7912;51.376;6.126;2022-10-17T04:42:46;18.80;99.90
15625;DHT22;7912;51.376;6.126;2022-10-17T04:45:14;18.80;99.90
15625;DHT22;7912;51.376;6.126;2022-10-17T04:47:41;18.80;99.90
15625;DHT22;7912;51.376;6.126;2022-10-17T04:50:09;18.80;99.90
15625;DHT22;7912;51.376;6.126;2022-10-17T04:52:36;18.80;99.90
15625;DHT22;7912;51.376;6.126;2022-10-17T04:55:06;18.80;99.90
15625;DHT22;7912;51.376;6.126;2022-10-17T04:57:34;18.80;99.90
15625;DHT22;7912;51.376;6.126;2022-10-17T05:00:03;18.90;99.90
15625;DHT22;7912;51.376;6.126;2022-10-17T05:02:31;18.90;99.90
15625;DHT22;7912;51.376;6.126;2022-10-17T05:04:58;18.90;99.90
15625;DHT22;7912;51.376;6.126;2022-10-17T05:07:26;18.90;99.90
15625;DHT22;7912;51.376;6.126;2022-10-17T05:09:53;18.90;99.90
15625;DHT22;7912;51.376;6.126;2022-10-17T05:12:20;18.90;99.90
15625;DHT22;7912;51.376;6.126;2022-10-17T05:14:48;18.90;99.90
15625;DHT22;7912;51.376;6.126;2022-10-17T05:17:15;18.90;99.90
15625;DHT22;7912;51.376;6.126;2022-10-17T05:19:42;18.90;99.90
15625;DHT22;7912;51.376;6.126;2022-10-17T05:22:10;18.90;99.90
15625;DHT22;7912;51.376;6.126;2022-10-17T05:24:37;18.90;99.90
15625;DHT22;7912;51.376;6.126;2022-10-17T05:27:05;18.90;99.90
15625;DHT22;7912;51.376;6.126;2022-10-17T05:29:33;18.90;99.90
15625;DHT22;7912;51.376;6.126;2022-10-17T05:32:01;18.90;99.90
15625;DHT22;7912;51.376;6.126;2022-10-17T05:34:29;18.90;99.90
15625;DHT22;7912;51.376;6.126;2022-10-17T05:36:56;18.80;99.90
15625;DHT22;7912;51.376;6.126;2022-10-17T05:39:24;18.80;99.90
15625;DHT22;7912;51.376;6.126;2022-10-17T05:41:51;18.80;99.90
15625;DHT22;7912;51.376;6.126;2022-10-17T05:44:18;18.80;99.90
15625;DHT22;7912;51.376;6.126;2022-10-17T05:46:48;18.80;99.90
15625;DHT22;7912;51.376;6.126;2022-10-17T05:49:15;18.80;99.90
15625;DHT22;7912;51.376;6.126;2022-10-17T05:52:04;18.80;99.90
15625;DHT22;7912;51.376;6.126;2022-10-17T05:54:32;18.70;99.90
15625;DHT22;7912;51.376;6.126;2022-10-17T05:57:00;18.80;99.90
15625;DHT22;7912;51.376;6.126;2022-10-17T05:59:27;18.70;99.90
15625;DHT22;7912;51.376;6.126;2022-10-17T06:01:55;18.80;99.90
15625;DHT22;7912;51.376;6.126;2022-10-17T06:04:24;18.70;99.90
15625;DHT22;7912;51.376;6.126;2022-10-17T06:06:53;18.80;99.90
15625;DHT22;7912;51.376;6.126;2022-10-17T06:09:22;18.80;99.90
15625;DHT22;7912;51.376;6.126;2022-10-17T06:11:51;18.80;99.90
15625;DHT22;7912;51.376;6.126;2022-10-17T06:14:19;18.80;99.90
15625;DHT22;7912;51.376;6.126;2022-10-17T06:16:47;18.80;99.90
15625;DHT22;7912;51.376;6.126;2022-10-17T06:19:15;18.80;99.90
15625;DHT22;7912;51.376;6.126;2022-10-17T06:21:43;18.80;99.90
15625;DHT22;7912;51.376;6.126;2022-10-17T06:24:11;18.90;99.90
15625;DHT22;7912;51.376;6.126;2022-10-17T06:26:39;18.90;99.90
15625;DHT22;7912;51.376;6.126;2022-10-17T06:29:07;18.90;99.90
15625;DHT22;7912;51.376;6.126;2022-10-17T06:31:54;18.90;99.90
15625;DHT22;7912;51.376;6.126;2022-10-17T06:34:22;18.90;99.90
15625;DHT22;7912;51.376;6.126;2022-10-17T06:36:49;19.00;99.90
15625;DHT22;7912;51.376;6.126;2022-10-17T06:39:17;19.00;99.90
15625;DHT22;7912;51.376;6.126;2022-10-17T06:41:45;19.00;99.90
15625;DHT22;7912;51.376;6.126;2022-10-17T06:44:12;19.00;99.90
15625;DHT22;7912;51.376;6.126;2022-10-17T06:46:40;19.10;99.90
15625;DHT22;7912;51.376;6.126;2022-10-17T06:49:09;19.10;99.90
15625;DHT22;7912;51.376;6.126;2022-10-17T06:51:37;19.10;99.90
15625;DHT22;7912;51.376;6.126;2022-10-17T06:54:04;19.10;99.90
15625;DHT22;7912;51.376;6.126;2022-10-17T06:56:31;19.10;99.90
15625;DHT22;7912;51.376;6.126;2022-10-17T06:58:59;19.20;99.90
15625;DHT22;7912;51.376;6.126;2022-10-17T07:01:26;19.20;99.90
15625;DHT22;7912;51.376;6.126;2022-10-17T07:03:55;19.20;99.90
15625;DHT22;7912;51.376;6.126;2022-10-17T07:06:23;19.30;99.90
15625;DHT22;7912;51.376;6.126;2022-10-17T07:08:50;19.40;99.90
15625;DHT22;7912;51.376;6.126;2022-10-17T07:11:24;19.40;99.90
15625;DHT22;7912;51.376;6.126;2022-10-17T07:13:51;19.40;99.90
15625;DHT22;7912;51.376;6.126;2022-10-17T07:16:19;19.50;99.90
15625;DHT22;7912;51.376;6.126;2022-10-17T07:18:50;19.60;99.90
15625;DHT22;7912;51.376;6.126;2022-10-17T07:21:18;19.70;99.90
15625;DHT22;7912;51.376;6.126;2022-10-17T07:23:46;19.70;99.90
15625;DHT22;7912;51.376;6.126;2022-10-17T07:26:15;19.70;99.90
15625;DHT22;7912;51.376;6.126;2022-10-17T07:28:44;19.80;99.90
15625;DHT22;7912;51.376;6.126;2022-10-17T07:31:18;19.80;99.90
15625;DHT22;7912;51.376;6.126;2022-10-17T07:33:46;19.90;99.90
15625;DHT22;7912;51.376;6.126;2022-10-17T07:36:15;20.00;99.90
15625;DHT22;7912;51.376;6.126;2022-10-17T07:38:43;20.00;99.90
15625;DHT22;7912;51.376;6.126;2022-10-17T07:41:11;20.10;99.90
15625;DHT22;7912;51.376;6.126;2022-10-17T07:43:46;20.10;99.90
15625;DHT22;7912;51.376;6.126;2022-10-17T07:46:14;20.20;99.90
15625;DHT22;7912;51.376;6.126;2022-10-17T07:48:42;20.30;99.90
15625;DHT22;7912;51.376;6.126;2022-10-17T07:51:09;20.40;99.90
15625;DHT22;7912;51.376;6.126;2022-10-17T07:53:38;20.40;99.90
15625;DHT22;7912;51.376;6.126;2022-10-17T07:56:12;20.50;99.90
15625;DHT22;7912;51.376;6.126;2022-10-17T07:58:39;20.60;99.90
15625;DHT22;7912;51.376;6.126;2022-10-17T08:01:08;20.70;99.90
15625;DHT22;7912;51.376;6.126;2022-10-17T08:03:43;20.80;99.90
15625;DHT22;7912;51.376;6.126;2022-10-17T08:06:12;20.90;99.90
15625;DHT22;7912;51.376;6.126;2022-10-17T08:08:40;21.00;99.90
15625;DHT22;7912;51.376;6.126;2022-10-17T08:11:09;21.20;99.90
15625;DHT22;7912;51.376;6.126;2022-10-17T08:13:40;21.30;99.90
15625;DHT22;7912;51.376;6.126;2022-10-17T08:16:10;21.40;99.90
15625;DHT22;7912;51.376;6.126;2022-10-17T08:18:41;21.50;99.90
15625;DHT22;7912;51.376;6.126;2022-10-17T08:21:11;21.60;99.90
15625;DHT22;7912;51.376;6.126;2022-10-17T08:23:39;21.80;99.90
15625;DHT22;7912;51.376;6.126;2022-10-17T08:26:07;21.90;99.90
15625;DHT22;7912;51.376;6.126;2022-10-17T08:28:38;22.00;99.90
15625;DHT22;7912;51.376;6.126;2022-10-17T08:31:12;22.10;99.90
15625;DHT22;7912;51.376;6.126;2022-10-17T08:33:41;22.20;99.90
15625;DHT22;7912;51.376;6.126;2022-10-17T08:36:12;22.30;99.90
15625;DHT22;7912;51.376;6.126;2022-10-17T08:38:41;22.40;99.90
15625;DHT22;7912;51.376;6.126;2022-10-17T08:41:19;22.50;99.90
15625;DHT22;7912;51.376;6.126;2022-10-17T08:44:11;22.60;99.90
15625;DHT22;7912;51.376;6.126;2022-10-17T08:46:58;22.70;99.90
15625;DHT22;7912;51.376;6.126;2022-10-17T08:49:48;22.80;99.90
15625;DHT22;7912;51.376;6.126;2022-10-17T08:52:45;22.90;99.90
15625;DHT22;7912;51.376;6.126;2022-10-17T08:55:40;23.00;99.90
15625;DHT22;7912;51.376;6.126;2022-10-17T08:58:29;23.00;99.90
15625;DHT22;7912;51.376;6.126;2022-10-17T09:06:34;23.10;99.90
15625;DHT22;7912;51.376;6.126;2022-10-17T09:15:51;23.30;99.90
15625;DHT22;7912;51.376;6.126;2022-10-17T09:18:44;23.30;99.90
15625;DHT22;7912;51.376;6.126;2022-10-17T09:27:25;23.30;99.90
15625;DHT22;7912;51.376;6.126;2022-10-17T09:30:24;23.30;99.90
15625;DHT22;7912;51.376;6.126;2022-10-17T09:33:25;23.30;99.90
15625;DHT22;7912;51.376;6.126;2022-10-17T09:36:32;23.30;99.90
15625;DHT22;7912;51.376;6.126;2022-10-17T09:41:53;23.30;99.90
15625;DHT22;7912;51.376;6.126;2022-10-17T09:44:28;23.20;99.90
15625;DHT22;7912;51.376;6.126;2022-10-17T09:49:45;23.20;99.90
15625;DHT22;7912;51.376;6.126;2022-10-17T09:52:23;23.10;99.90
15625;DHT22;7912;51.376;6.126;2022-10-17T09:58:02;23.10;99.90
15625;DHT22;7912;51.376;6.126;2022-10-17T10:00:34;23.10;99.90
15625;DHT22;7912;51.376;6.126;2022-10-17T10:05:56;23.10;99.90
15625;DHT22;7912;51.376;6.126;2022-10-17T10:08:56;23.10;99.90
15625;DHT22;7912;51.376;6.126;2022-10-17T10:11:46;23.10;99.90
15625;DHT22;7912;51.376;6.126;2022-10-17T10:14:22;23.10;99.90
15625;DHT22;7912;51.376;6.126;2022-10-17T10:17:03;23.10;99.90
15625;DHT22;7912;51.376;6.126;2022-10-17T10:19:35;23.10;99.90
15625;DHT22;7912;51.376;6.126;2022-10-17T10:22:09;23.00;99.90
15625;DHT22;7912;51.376;6.126;2022-10-17T10:24:42;23.10;99.90
15625;DHT22;7912;51.376;6.126;2022-10-17T10:27:15;23.10;99.90
15625;DHT22;7912;51.376;6.126;2022-10-17T10:29:51;23.00;99.90
15625;DHT22;7912;51.376;6.126;2022-10-17T10:32:20;23.00;99.90
15625;DHT22;7912;51.376;6.126;2022-10-17T10:35:02;23.00;99.90
15625;DHT22;7912;51.376;6.126;2022-10-17T10:37:41;22.90;99.90
15625;DHT22;7912;51.376;6.126;2022-10-17T10:40:19;22.90;99.90
15625;DHT22;7912;51.376;6.126;2022-10-17T10:43:31;22.80;99.90
15625;DHT22;7912;51.376;6.126;2022-10-17T10:46:24;22.70;99.90
15625;DHT22;7912;51.376;6.126;2022-10-17T10:48:55;22.60;99.90
15625;DHT22;7912;51.376;6.126;2022-10-17T10:51:36;22.50;99.90
15625;DHT22;7912;51.376;6.126;2022-10-17T10:54:12;22.50;99.90
15625;DHT22;7912;51.376;6.126;2022-10-17T10:56:51;22.40;99.90
15625;DHT22;7912;51.376;6.126;2022-10-17T11:00:02;22.40;99.90
15625;DHT22;7912;51.376;6.126;2022-10-17T11:05:59;22.30;99.90
15625;DHT22;7912;51.376;6.126;2022-10-17T11:08:47;22.30;99.90
15625;DHT22;7912;51.376;6.126;2022-10-17T11:11:31;22.30;99.90
15625;DHT22;7912;51.376;6.126;2022-10-17T11:14:20;22.30;99.90
15625;DHT22;7912;51.376;6.126;2022-10-17T11:17:24;22.30;99.90
15625;DHT22;7912;51.376;6.126;2022-10-17T11:22:51;22.40;99.90
15625;DHT22;7912;51.376;6.126;2022-10-17T11:25:37;22.50;99.90
15625;DHT22;7912;51.376;6.126;2022-10-17T11:28:18;22.50;99.90
15625;DHT22;7912;51.376;6.126;2022-10-17T11:31:06;22.50;99.90
15625;DHT22;7912;51.376;6.126;2022-10-17T11:34:00;22.60;99.90
15625;DHT22;7912;51.376;6.126;2022-10-17T11:36:51;22.60;99.90
15625;DHT22;7912;51.376;6.126;2022-10-17T11:39:40;22.60;99.90
15625;DHT22;7912;51.376;6.126;2022-10-17T11:42:12;22.60;99.90
15625;DHT22;7912;51.376;6.126;2022-10-17T11:44:44;22.60;99.90
15625;DHT22;7912;51.376;6.126;2022-10-17T11:50:23;22.60;99.90
15625;DHT22;7912;51.376;6.126;2022-10-17T11:53:19;22.60;99.90
15625;DHT22;7912;51.376;6.126;2022-10-17T11:55:52;22.60;99.90
15625;DHT22;7912;51.376;6.126;2022-10-17T12:12:47;22.70;99.90
15625;DHT22;7912;51.376;6.126;2022-10-17T12:17:53;22.80;99.90
15625;DHT22;7912;51.376;6.126;2022-10-17T12:26:00;22.70;99.90
15625;DHT22;7912;51.376;6.126;2022-10-17T12:28:39;22.70;99.90
15625;DHT22;7912;51.376;6.126;2022-10-17T12:33:59;22.70;99.90
15625;DHT22;7912;51.376;6.126;2022-10-17T12:49:44;22.60;99.90
15625;DHT22;7912;51.376;6.126;2022-10-17T12:52:25;22.60;99.90
15625;DHT22;7912;51.376;6.126;2022-10-17T12:55:17;22.60;99.90
15625;DHT22;7912;51.376;6.126;2022-10-17T12:58:05;22.50;99.90
15625;DHT22;7912;51.376;6.126;2022-10-17T13:00:46;22.60;99.90
15625;DHT22;7912;51.376;6.126;2022-10-17T13:03:42;22.50;99.90
15625;DHT22;7912;51.376;6.126;2022-10-17T13:06:21;22.50;99.90
15625;DHT22;7912;51.376;6.126;2022-10-17T13:09:16;22.50;99.90
15625;DHT22;7912;51.376;6.126;2022-10-17T13:11:51;22.50;99.90
15625;DHT22;7912;51.376;6.126;2022-10-17T13:14:21;22.40;99.90
15625;DHT22;7912;51.376;6.126;2022-10-17T13:19:22;22.40;99.90
15625;DHT22;7912;51.376;6.126;2022-10-17T13:22:02;22.40;99.90
15625;DHT22;7912;51.376;6.126;2022-10-17T13:24:37;22.40;99.90
15625;DHT22;7912;51.376;6.126;2022-10-17T13:27:26;22.30;99.90
15625;DHT22;7912;51.376;6.126;2022-10-17T13:30:00;22.30;99.90
15625;DHT22;7912;51.376;6.126;2022-10-17T13:32:46;22.30;99.90
15625;DHT22;7912;51.376;6.126;2022-10-17T13:35:16;22.30;99.90
15625;DHT22;7912;51.376;6.126;2022-10-17T13:38:11;22.30;99.90
15625;DHT22;7912;51.376;6.126;2022-10-17T13:40:41;22.30;99.90
15625;DHT22;7912;51.376;6.126;2022-10-17T13:43:18;22.30;99.90
15625;DHT22;7912;51.376;6.126;2022-10-17T13:45:55;22.30;99.90
15625;DHT22;7912;51.376;6.126;2022-10-17T13:48:47;22.20;99.90
15625;DHT22;7912;51.376;6.126;2022-10-17T13:51:15;22.30;99.90
15625;DHT22;7912;51.376;6.126;2022-10-17T13:53:43;22.30;99.90
15625;DHT22;7912;51.376;6.126;2022-10-17T14:03:04;22.30;99.90
15625;DHT22;7912;51.376;6.126;2022-10-17T14:05:32;22.30;99.90
15625;DHT22;7912;51.376;6.126;2022-10-17T14:08:02;22.20;99.90
15625;DHT22;7912;51.376;6.126;2022-10-17T14:10:39;22.20;99.90
15625;DHT22;7912;51.376;6.126;2022-10-17T14:13:30;22.20;99.90
15625;DHT22;7912;51.376;6.126;2022-10-17T14:16:22;22.20;99.90
15625;DHT22;7912;51.376;6.126;2022-10-17T14:18:52;22.20;99.90
15625;DHT22;7912;51.376;6.126;2022-10-17T14:21:24;22.20;99.90
15625;DHT22;7912;51.376;6.126;2022-10-17T14:24:14;22.20;99.90
15625;DHT22;7912;51.376;6.126;2022-10-17T14:26:55;22.20;99.90
15625;DHT22;7912;51.376;6.126;2022-10-17T14:29:31;22.20;99.90
15625;DHT22;7912;51.376;6.126;2022-10-17T14:32:17;22.20;99.90
15625;DHT22;7912;51.376;6.126;2022-10-17T14:34:52;22.20;99.90
15625;DHT22;7912;51.376;6.126;2022-10-17T14:37:41;22.10;99.90
15625;DHT22;7912;51.376;6.126;2022-10-17T14:40:17;22.10;99.90
15625;DHT22;7912;51.376;6.126;2022-10-17T14:42:57;22.10;99.90
15625;DHT22;7912;51.376;6.126;2022-10-17T14:45:35;22.10;99.90
15625;DHT22;7912;51.376;6.126;2022-10-17T14:48:13;22.10;99.90
15625;DHT22;7912;51.376;6.126;2022-10-17T14:51:11;22.10;99.90
15625;DHT22;7912;51.376;6.126;2022-10-17T14:53:43;22.00;99.90
15625;DHT22;7912;51.376;6.126;2022-10-17T14:56:40;22.00;99.90
15625;DHT22;7912;51.376;6.126;2022-10-17T14:59:15;22.00;99.90
15625;DHT22;7912;51.376;6.126;2022-10-17T15:02:05;22.00;99.90
15625;DHT22;7912;51.376;6.126;2022-10-17T15:04:33;22.00;99.90
15625;DHT22;7912;51.376;6.126;2022-10-17T15:07:01;22.00;99.90
15625;DHT22;7912;51.376;6.126;2022-10-17T15:09:29;22.00;99.90
15625;DHT22;7912;51.376;6.126;2022-10-17T15:12:09;21.90;99.90
15625;DHT22;7912;51.376;6.126;2022-10-17T15:14:42;21.90;99.90
15625;DHT22;7912;51.376;6.126;2022-10-17T15:17:23;21.90;99.90
15625;DHT22;7912;51.376;6.126;2022-10-17T15:19:52;21.90;99.90
15625;DHT22;7912;51.376;6.126;2022-10-17T15:22:21;21.80;99.90
15625;DHT22;7912;51.376;6.126;2022-10-17T15:24:49;21.80;99.90
15625;DHT22;7912;51.376;6.126;2022-10-17T15:27:22;21.80;99.90
15625;DHT22;7912;51.376;6.126;2022-10-17T15:29:52;21.80;99.90
15625;DHT22;7912;51.376;6.126;2022-10-17T15:32:19;21.80;99.90
15625;DHT22;7912;51.376;6.126;2022-10-17T15:34:47;21.70;99.90
15625;DHT22;7912;51.376;6.126;2022-10-17T15:37:24;21.70;99.90
15625;DHT22;7912;51.376;6.126;2022-10-17T15:42:57;21.70;99.90
15625;DHT22;7912;51.376;6.126;2022-10-17T15:45:24;21.60;99.90
15625;DHT22;7912;51.376;6.126;2022-10-17T15:47:59;21.60;99.90
15625;DHT22;7912;51.376;6.126;2022-10-17T15:50:33;21.60;99.90
15625;DHT22;7912;51.376;6.126;2022-10-17T15:53:01;21.50;99.90
15625;DHT22;7912;51.376;6.126;2022-10-17T15:55:29;21.50;99.90
15625;DHT22;7912;51.376;6.126;2022-10-17T15:57:58;21.50;99.90
15625;DHT22;7912;51.376;6.126;2022-10-17T16:00:26;21.50;99.90
15625;DHT22;7912;51.376;6.126;2022-10-17T16:02:54;21.50;99.90
15625;DHT22;7912;51.376;6.126;2022-10-17T16:05:24;21.50;99.90
15625;DHT22;7912;51.376;6.126;2022-10-17T16:07:53;21.40;99.90
15625;DHT22;7912;51.376;6.126;2022-10-17T16:10:22;21.40;99.90
15625;DHT22;7912;51.376;6.126;2022-10-17T16:12:52;21.40;99.90
15625;DHT22;7912;51.376;6.126;2022-10-17T16:15:40;21.40;99.90
15625;DHT22;7912;51.376;6.126;2022-10-17T16:18:08;21.30;99.90
15625;DHT22;7912;51.376;6.126;2022-10-17T16:20:37;21.30;99.90
15625;DHT22;7912;51.376;6.126;2022-10-17T16:23:05;21.30;99.90
15625;DHT22;7912;51.376;6.126;2022-10-17T16:25:52;21.30;99.90
15625;DHT22;7912;51.376;6.126;2022-10-17T16:28:20;21.30;99.90
15625;DHT22;7912;51.376;6.126;2022-10-17T16:30:47;21.20;99.90
15625;DHT22;7912;51.376;6.126;2022-10-17T16:33:15;21.20;99.90
15625;DHT22;7912;51.376;6.126;2022-10-17T16:35:42;21.20;99.90
15625;DHT22;7912;51.376;6.126;2022-10-17T16:38:13;21.10;99.90
15625;DHT22;7912;51.376;6.126;2022-10-17T16:40:41;21.10;99.90
15625;DHT22;7912;51.376;6.126;2022-10-17T16:43:12;21.00;99.90
15625;DHT22;7912;51.376;6.126;2022-10-17T16:45:40;20.90;99.90
15625;DHT22;7912;51.376;6.126;2022-10-17T16:48:08;20.90;99.90
15625;DHT22;7912;51.376;6.126;2022-10-17T16:50:38;21.00;99.90
15625;DHT22;7912;51.376;6.126;2022-10-17T16:53:06;20.90;99.90
15625;DHT22;7912;51.376;6.126;2022-10-17T16:55:33;20.90;99.90
15625;DHT22;7912;51.376;6.126;2022-10-17T16:58:01;20.90;99.90
15625;DHT22;7912;51.376;6.126;2022-10-17T17:00:28;20.90;99.90
15625;DHT22;7912;51.376;6.126;2022-10-17T17:02:56;20.80;99.90
15625;DHT22;7912;51.376;6.126;2022-10-17T17:05:26;20.80;99.90
15625;DHT22;7912;51.376;6.126;2022-10-17T17:07:54;20.80;99.90
15625;DHT22;7912;51.376;6.126;2022-10-17T17:10:21;20.70;99.90
15625;DHT22;7912;51.376;6.126;2022-10-17T17:12:49;20.70;99.90
15625;DHT22;7912;51.376;6.126;2022-10-17T17:15:16;20.70;99.90
15625;DHT22;7912;51.376;6.126;2022-10-17T17:17:43;20.60;99.90
15625;DHT22;7912;51.376;6.126;2022-10-17T17:20:17;20.60;99.90
15625;DHT22;7912;51.376;6.126;2022-10-17T17:22:45;20.50;99.90
15625;DHT22;7912;51.376;6.126;2022-10-17T17:25:12;20.50;99.90
15625;DHT22;7912;51.376;6.126;2022-10-17T17:27:40;20.50;99.90
15625;DHT22;7912;51.376;6.126;2022-10-17T17:30:08;20.40;99.90
15625;DHT22;7912;51.376;6.126;2022-10-17T17:32:35;20.40;99.90
15625;DHT22;7912;51.376;6.126;2022-10-17T17:35:03;20.40;99.90
15625;DHT22;7912;51.376;6.126;2022-10-17T17:37:31;20.40;99.90
15625;DHT22;7912;51.376;6.126;2022-10-17T17:39:59;20.40;99.90
15625;DHT22;7912;51.376;6.126;2022-10-17T17:42:26;20.40;99.90
15625;DHT22;7912;51.376;6.126;2022-10-17T17:44:53;20.40;99.90
15625;DHT22;7912;51.376;6.126;2022-10-17T17:47:21;20.30;99.90
15625;DHT22;7912;51.376;6.126;2022-10-17T17:49:48;20.30;99.90
15625;DHT22;7912;51.376;6.126;2022-10-17T17:52:16;20.30;99.90
15625;DHT22;7912;51.376;6.126;2022-10-17T17:54:43;20.30;99.90
15625;DHT22;7912;51.376;6.126;2022-10-17T17:57:11;20.30;99.90
15625;DHT22;7912;51.376;6.126;2022-10-17T17:59:38;20.30;99.90
15625;DHT22;7912;51.376;6.126;2022-10-17T18:02:09;20.30;99.90
15625;DHT22;7912;51.376;6.126;2022-10-17T18:04:37;20.30;99.90
15625;DHT22;7912;51.376;6.126;2022-10-17T18:07:05;20.20;99.90
15625;DHT22;7912;51.376;6.126;2022-10-17T18:09:32;20.20;99.90
15625;DHT22;7912;51.376;6.126;2022-10-17T18:11:59;20.20;99.90
15625;DHT22;7912;51.376;6.126;2022-10-17T18:14:27;20.20;99.90
15625;DHT22;7912;51.376;6.126;2022-10-17T18:16:54;20.20;99.90
15625;DHT22;7912;51.376;6.126;2022-10-17T18:19:21;20.20;99.90
15625;DHT22;7912;51.376;6.126;2022-10-17T18:21:49;20.20;99.90
15625;DHT22;7912;51.376;6.126;2022-10-17T18:24:17;20.20;99.90
15625;DHT22;7912;51.376;6.126;2022-10-17T18:26:45;20.20;99.90